sensor_id;sensor_type;location;lat;lon;timestamp;pressure;altitude;pressure_sealevel;temperature;humidity
60212;BME280;46079;48.686;15.598;2023-05-27T00:00:05;100536.78;;;21.69;56.61
60212;BME280;46079;48.686;15.598;2023-05-27T00:02:32;100531.66;;;21.68;56.99
60212;BME280;46079;48.686;15.598;2023-05-27T00:04:58;100529.84;;;21.68;56.58
60212;BME280;46079;48.686;15.598;2023-05-27T00:07:23;100530.81;;;21.67;56.48
60212;BME280;46079;48.686;15.598;2023-05-27T00:09:52;100532.47;;;21.68;56.57
60212;BME280;46079;48.686;15.598;2023-05-27T00:12:20;100528.19;;;21.67;56.78
60212;BME280;46079;48.686;15.598;2023-05-27T00:14:46;100521.94;;;21.68;56.58
60212;BME280;46079;48.686;15.598;2023-05-27T00:17:12;100516.81;;;21.67;56.82
60212;BME280;46079;48.686;15.598;2023-05-27T00:19:41;100517.66;;;21.67;56.85
60212;BME280;46079;48.686;15.598;2023-05-27T00:22:07;100519.47;;;21.67;56.65
60212;BME280;46079;48.686;15.598;2023-05-27T00:24:34;100522.91;;;21.67;56.85
60212;BME280;46079;48.686;15.598;2023-05-27T00:27:01;100516.81;;;21.67;56.74
60212;BME280;46079;48.686;15.598;2023-05-27T00:29:28;100522.91;;;21.67;56.83
60212;BME280;46079;48.686;15.598;2023-05-27T00:31:53;100512.41;;;21.67;56.89
60212;BME280;46079;48.686;15.598;2023-05-27T00:34:18;100509.75;;;21.67;56.63
60212;BME280;46079;48.686;15.598;2023-05-27T00:36:44;100511.56;;;21.67;56.65
60212;BME280;46079;48.686;15.598;2023-05-27T00:39:10;100522.91;;;21.67;56.65
60212;BME280;46079;48.686;15.598;2023-05-27T00:41:36;100515.13;;;21.66;56.89
60212;BME280;46079;48.686;15.598;2023-05-27T00:44:01;100518.59;;;21.66;56.61
60212;BME280;46079;48.686;15.598;2023-05-27T00:46:27;100520.41;;;21.66;56.84
60212;BME280;46079;48.686;15.598;2023-05-27T00:48:53;100517.78;;;21.66;56.92
60212;BME280;46079;48.686;15.598;2023-05-27T00:51:19;100523.03;;;21.66;56.79
60212;BME280;46079;48.686;15.598;2023-05-27T00:53:46;100523.88;;;21.66;56.92
60212;BME280;46079;48.686;15.598;2023-05-27T00:56:12;100523.88;;;21.66;56.57
60212;BME280;46079;48.686;15.598;2023-05-27T00:58:43;100520.41;;;21.66;56.89
60212;BME280;46079;48.686;15.598;2023-05-27T01:01:08;100521.38;;;21.65;56.74
60212;BME280;46079;48.686;15.598;2023-05-27T01:03:35;100527.47;;;21.65;56.76
60212;BME280;46079;48.686;15.598;2023-05-27T01:06:45;100519.59;;;21.65;56.67
60212;BME280;46079;48.686;15.598;2023-05-27T01:14:30;100518.75;;;21.65;56.57
60212;BME280;46079;48.686;15.598;2023-05-27T01:16:58;100516.94;;;21.65;56.55
60212;BME280;46079;48.686;15.598;2023-05-27T01:19:42;100502.13;;;21.64;56.79
60212;BME280;46079;48.686;15.598;2023-05-27T01:22:13;100502.13;;;21.64;56.84
60212;BME280;46079;48.686;15.598;2023-05-27T01:24:39;100507.41;;;21.64;56.61
60212;BME280;46079;48.686;15.598;2023-05-27T01:27:07;100507.41;;;21.64;56.85
60212;BME280;46079;48.686;15.598;2023-05-27T01:29:34;100502.13;;;21.64;56.87
60212;BME280;46079;48.686;15.598;2023-05-27T01:34:40;100504.75;;;21.64;56.71
60212;BME280;46079;48.686;15.598;2023-05-27T01:37:09;100497.69;;;21.65;56.76
60212;BME280;46079;48.686;15.598;2023-05-27T01:39:39;100499.50;;;21.64;56.59
60212;BME280;46079;48.686;15.598;2023-05-27T01:42:06;100496.88;;;21.64;56.78
60212;BME280;46079;48.686;15.598;2023-05-27T01:44:32;100496.88;;;21.64;56.66
60212;BME280;46079;48.686;15.598;2023-05-27T01:47:01;100501.28;;;21.64;56.78
60212;BME280;46079;48.686;15.598;2023-05-27T01:49:29;100497.81;;;21.63;56.51
60212;BME280;46079;48.686;15.598;2023-05-27T01:51:54;100506.53;;;21.64;56.73
60212;BME280;46079;48.686;15.598;2023-05-27T01:54:20;100499.50;;;21.64;56.60
60212;BME280;46079;48.686;15.598;2023-05-27T01:56:45;100503.91;;;21.64;56.52
60212;BME280;46079;48.686;15.598;2023-05-27T01:59:11;100501.28;;;21.64;56.80
60212;BME280;46079;48.686;15.598;2023-05-27T02:01:36;100497.81;;;21.63;56.73
60212;BME280;46079;48.686;15.598;2023-05-27T02:04:02;100500.44;;;21.63;56.47
60212;BME280;46079;48.686;15.598;2023-05-27T02:06:29;100500.44;;;21.63;56.44
60212;BME280;46079;48.686;15.598;2023-05-27T02:08:54;100494.34;;;21.63;56.61
60212;BME280;46079;48.686;15.598;2023-05-27T02:11:20;100500.59;;;21.62;56.41
60212;BME280;46079;48.686;15.598;2023-05-27T02:13:46;100497.81;;;21.63;56.71
60212;BME280;46079;48.686;15.598;2023-05-27T02:16:11;100501.28;;;21.64;56.65
60212;BME280;46079;48.686;15.598;2023-05-27T02:18:37;100500.44;;;21.63;56.55
60212;BME280;46079;48.686;15.598;2023-05-27T02:21:03;100499.63;;;21.63;56.70
60212;BME280;46079;48.686;15.598;2023-05-27T02:23:34;100503.06;;;21.63;56.40
60212;BME280;46079;48.686;15.598;2023-05-27T02:25:59;100504.06;;;21.62;56.51
60212;BME280;46079;48.686;15.598;2023-05-27T02:28:26;100512.78;;;21.63;56.57
60212;BME280;46079;48.686;15.598;2023-05-27T02:30:51;100504.88;;;21.63;56.33
60212;BME280;46079;48.686;15.598;2023-05-27T02:33:17;100507.66;;;21.61;56.65
60212;BME280;46079;48.686;15.598;2023-05-27T02:35:42;100511.94;;;21.62;56.39
60212;BME280;46079;48.686;15.598;2023-05-27T02:38:08;100513.75;;;21.62;56.58
60212;BME280;46079;48.686;15.598;2023-05-27T02:40:33;100510.28;;;21.61;56.28
60212;BME280;46079;48.686;15.598;2023-05-27T02:42:58;100504.06;;;21.62;56.26
60212;BME280;46079;48.686;15.598;2023-05-27T02:45:24;100511.13;;;21.62;56.49
60212;BME280;46079;48.686;15.598;2023-05-27T02:47:50;100504.06;;;21.62;56.48
60212;BME280;46079;48.686;15.598;2023-05-27T02:50:16;100510.28;;;21.61;56.22
60212;BME280;46079;48.686;15.598;2023-05-27T02:52:41;100514.59;;;21.62;56.41
60212;BME280;46079;48.686;15.598;2023-05-27T02:55:07;100518.19;;;21.61;56.36
60212;BME280;46079;48.686;15.598;2023-05-27T02:57:33;100513.75;;;21.62;56.39
60212;BME280;46079;48.686;15.598;2023-05-27T02:59:58;100519.00;;;21.62;56.19
60212;BME280;46079;48.686;15.598;2023-05-27T03:02:24;100519.00;;;21.62;56.18
60212;BME280;46079;48.686;15.598;2023-05-27T03:04:49;100518.19;;;21.61;56.33
60212;BME280;46079;48.686;15.598;2023-05-27T03:07:15;100516.38;;;21.62;56.22
60212;BME280;46079;48.686;15.598;2023-05-27T03:09:40;100516.38;;;21.62;56.07
60212;BME280;46079;48.686;15.598;2023-05-27T03:12:06;100518.19;;;21.61;56.41
60212;BME280;46079;48.686;15.598;2023-05-27T03:14:32;100520.81;;;21.61;56.05
60212;BME280;46079;48.686;15.598;2023-05-27T03:16:58;100524.41;;;21.60;56.17
60212;BME280;46079;48.686;15.598;2023-05-27T03:19:24;100523.47;;;21.61;56.33
60212;BME280;46079;48.686;15.598;2023-05-27T03:21:50;100526.09;;;21.61;56.15
60212;BME280;46079;48.686;15.598;2023-05-27T03:24:16;100521.75;;;21.60;56.04
60212;BME280;46079;48.686;15.598;2023-05-27T03:26:42;100527.03;;;21.60;55.99
60212;BME280;46079;48.686;15.598;2023-05-27T03:29:07;100523.47;;;21.61;56.11
60212;BME280;46079;48.686;15.598;2023-05-27T03:31:33;100523.47;;;21.61;55.97
60212;BME280;46079;48.686;15.598;2023-05-27T03:33:58;100527.88;;;21.61;56.19
60212;BME280;46079;48.686;15.598;2023-05-27T03:36:23;100530.50;;;21.61;56.22
60212;BME280;46079;48.686;15.598;2023-05-27T03:38:49;100533.13;;;21.61;56.28
60212;BME280;46079;48.686;15.598;2023-05-27T03:41:14;100534.94;;;21.60;56.21
60212;BME280;46079;48.686;15.598;2023-05-27T03:43:40;100528.72;;;21.61;56.29
60212;BME280;46079;48.686;15.598;2023-05-27T03:46:06;100527.03;;;21.60;56.45
60212;BME280;46079;48.686;15.598;2023-05-27T03:48:32;100528.72;;;21.61;56.35
60212;BME280;46079;48.686;15.598;2023-05-27T03:50:58;100533.13;;;21.61;56.11
60212;BME280;46079;48.686;15.598;2023-05-27T03:53:24;100522.59;;;21.61;56.26
60212;BME280;46079;48.686;15.598;2023-05-27T03:55:49;100529.53;;;21.62;56.29
60212;BME280;46079;48.686;15.598;2023-05-27T03:58:15;100519.84;;;21.62;56.20
60212;BME280;46079;48.686;15.598;2023-05-27T04:00:41;100531.19;;;21.63;56.04
60212;BME280;46079;48.686;15.598;2023-05-27T04:03:07;100531.19;;;21.63;56.13
60212;BME280;46079;48.686;15.598;2023-05-27T04:05:34;100533.72;;;21.64;56.09
60212;BME280;46079;48.686;15.598;2023-05-27T04:08:00;100530.22;;;21.64;55.98
60212;BME280;46079;48.686;15.598;2023-05-27T04:10:26;100530.94;;;21.66;56.17
60212;BME280;46079;48.686;15.598;2023-05-27T04:12:51;100535.38;;;21.65;55.84
60212;BME280;46079;48.686;15.598;2023-05-27T04:15:17;100531.75;;;21.66;56.22
60212;BME280;46079;48.686;15.598;2023-05-27T04:17:42;100536.19;;;21.66;55.83
60212;BME280;46079;48.686;15.598;2023-05-27T04:20:08;100537.03;;;21.66;55.88
60212;BME280;46079;48.686;15.598;2023-05-27T04:22:39;100538.72;;;21.67;55.83
60212;BME280;46079;48.686;15.598;2023-05-27T04:25:05;100534.41;;;21.66;55.81
60212;BME280;46079;48.686;15.598;2023-05-27T04:27:31;100537.88;;;21.67;55.78
60212;BME280;46079;48.686;15.598;2023-05-27T04:29:56;100536.91;;;21.68;55.94
60212;BME280;46079;48.686;15.598;2023-05-27T04:32:22;100543.00;;;21.68;55.75
60212;BME280;46079;48.686;15.598;2023-05-27T04:34:47;100539.56;;;21.68;55.99
60212;BME280;46079;48.686;15.598;2023-05-27T04:37:14;100540.38;;;21.68;55.77
60212;BME280;46079;48.686;15.598;2023-05-27T04:39:42;100535.00;;;21.70;55.86
60212;BME280;46079;48.686;15.598;2023-05-27T04:42:11;100534.16;;;21.69;55.97
60212;BME280;46079;48.686;15.598;2023-05-27T04:44:37;100540.94;;;21.72;55.73
60212;BME280;46079;48.686;15.598;2023-05-27T04:47:04;100540.00;;;21.73;55.98
60212;BME280;46079;48.686;15.598;2023-05-27T04:49:30;100535.44;;;21.75;55.97
60212;BME280;46079;48.686;15.598;2023-05-27T04:51:56;100537.91;;;21.76;55.53
60212;BME280;46079;48.686;15.598;2023-05-27T04:54:22;100544.88;;;21.78;55.73
60212;BME280;46079;48.686;15.598;2023-05-27T04:56:47;100532.38;;;21.80;55.57
60212;BME280;46079;48.686;15.598;2023-05-27T04:59:16;100549.72;;;21.82;55.22
60212;BME280;46079;48.686;15.598;2023-05-27T05:01:43;100549.59;;;21.84;55.38
60212;BME280;46079;48.686;15.598;2023-05-27T05:04:35;100552.09;;;21.85;55.28
60212;BME280;46079;48.686;15.598;2023-05-27T05:07:01;100556.25;;;21.88;55.41
60212;BME280;46079;48.686;15.598;2023-05-27T05:09:26;100550.03;;;21.89;55.16
60212;BME280;46079;48.686;15.598;2023-05-27T05:11:52;100561.25;;;21.91;55.25
60212;BME280;46079;48.686;15.598;2023-05-27T05:14:17;100563.91;;;21.91;54.96
60212;BME280;46079;48.686;15.598;2023-05-27T05:16:42;100552.25;;;21.93;55.34
60212;BME280;46079;48.686;15.598;2023-05-27T05:19:08;100554.91;;;21.93;55.18
60212;BME280;46079;48.686;15.598;2023-05-27T05:21:33;100555.50;;;21.97;55.09
60212;BME280;46079;48.686;15.598;2023-05-27T05:23:59;100549.38;;;21.96;55.18
60212;BME280;46079;48.686;15.598;2023-05-27T05:26:24;100557.97;;;21.98;54.75
60212;BME280;46079;48.686;15.598;2023-05-27T05:28:50;100548.16;;;22.01;55.00
60212;BME280;46079;48.686;15.598;2023-05-27T05:31:16;100556.88;;;22.01;54.88
60212;BME280;46079;48.686;15.598;2023-05-27T05:33:41;100551.59;;;22.01;54.66
60212;BME280;46079;48.686;15.598;2023-05-27T05:36:07;100555.78;;;22.04;54.79
60212;BME280;46079;48.686;15.598;2023-05-27T05:38:33;100555.66;;;22.05;54.63
60212;BME280;46079;48.686;15.598;2023-05-27T05:40:59;100549.41;;;22.06;54.54
60212;BME280;46079;48.686;15.598;2023-05-27T05:43:25;100558.03;;;22.08;54.81
60212;BME280;46079;48.686;15.598;2023-05-27T05:45:51;100561.47;;;22.09;54.68
60212;BME280;46079;48.686;15.598;2023-05-27T05:48:16;100567.47;;;22.11;54.91
60212;BME280;46079;48.686;15.598;2023-05-27T05:50:42;100563.84;;;22.12;54.67
60212;BME280;46079;48.686;15.598;2023-05-27T05:53:08;100565.50;;;22.13;54.37
60212;BME280;46079;48.686;15.598;2023-05-27T05:55:34;100576.91;;;22.13;54.39
60212;BME280;46079;48.686;15.598;2023-05-27T05:58:00;100580.22;;;22.15;54.17
60212;BME280;46079;48.686;15.598;2023-05-27T06:00:25;100580.09;;;22.17;54.64
60212;BME280;46079;48.686;15.598;2023-05-27T06:02:52;100578.28;;;22.17;54.43
60212;BME280;46079;48.686;15.598;2023-05-27T06:05:18;100574.72;;;22.18;54.28
60212;BME280;46079;48.686;15.598;2023-05-27T06:07:44;100580.69;;;22.20;54.15
60212;BME280;46079;48.686;15.598;2023-05-27T06:10:10;100583.19;;;22.22;54.20
60212;BME280;46079;48.686;15.598;2023-05-27T06:12:36;100585.84;;;22.22;53.99
60212;BME280;46079;48.686;15.598;2023-05-27T06:15:02;100588.31;;;22.24;53.96
60212;BME280;46079;48.686;15.598;2023-05-27T06:17:28;100590.00;;;22.25;54.25
60212;BME280;46079;48.686;15.598;2023-05-27T06:19:53;100590.69;;;22.27;54.23
60212;BME280;46079;48.686;15.598;2023-05-27T06:22:18;100594.31;;;22.26;54.18
60212;BME280;46079;48.686;15.598;2023-05-27T06:24:44;100602.91;;;22.28;54.04
60212;BME280;46079;48.686;15.598;2023-05-27T06:27:09;100592.38;;;22.28;54.03
60212;BME280;46079;48.686;15.598;2023-05-27T06:29:35;100604.56;;;22.29;54.15
60212;BME280;46079;48.686;15.598;2023-05-27T06:32:01;100599.19;;;22.30;54.17
60212;BME280;46079;48.686;15.598;2023-05-27T06:34:26;100599.19;;;22.30;53.71
60212;BME280;46079;48.686;15.598;2023-05-27T06:36:51;100586.69;;;22.32;53.75
60212;BME280;46079;48.686;15.598;2023-05-27T06:39:17;100605.13;;;22.32;53.85
60212;BME280;46079;48.686;15.598;2023-05-27T06:41:42;100598.91;;;22.33;53.82
60212;BME280;46079;48.686;15.598;2023-05-27T06:44:08;100598.75;;;22.35;53.73
60212;BME280;46079;48.686;15.598;2023-05-27T06:46:33;100592.66;;;22.34;53.68
60212;BME280;46079;48.686;15.598;2023-05-27T06:48:59;100605.72;;;22.36;53.57
60212;BME280;46079;48.686;15.598;2023-05-27T06:51:25;100608.34;;;22.36;54.04
60212;BME280;46079;48.686;15.598;2023-05-27T06:53:52;100604.72;;;22.37;53.73
60212;BME280;46079;48.686;15.598;2023-05-27T06:56:17;100597.66;;;22.37;53.86
60212;BME280;46079;48.686;15.598;2023-05-27T06:58:44;100611.69;;;22.38;53.55
60212;BME280;46079;48.686;15.598;2023-05-27T07:01:09;100604.47;;;22.40;53.64
60212;BME280;46079;48.686;15.598;2023-05-27T07:03:35;100602.81;;;22.39;53.75
60212;BME280;46079;48.686;15.598;2023-05-27T07:06:00;100604.47;;;22.40;53.84
60212;BME280;46079;48.686;15.598;2023-05-27T07:08:26;100603.50;;;22.41;53.77
60212;BME280;46079;48.686;15.598;2023-05-27T07:10:51;100603.50;;;22.41;53.66
60212;BME280;46079;48.686;15.598;2023-05-27T07:13:17;100604.47;;;22.40;53.43
60212;BME280;46079;48.686;15.598;2023-05-27T07:15:42;100603.50;;;22.41;53.22
60212;BME280;46079;48.686;15.598;2023-05-27T07:18:08;100607.81;;;22.42;53.62
60212;BME280;46079;48.686;15.598;2023-05-27T07:20:33;100606.97;;;22.41;53.37
60212;BME280;46079;48.686;15.598;2023-05-27T07:23:00;100597.25;;;22.42;53.69
60212;BME280;46079;48.686;15.598;2023-05-27T07:25:25;100597.25;;;22.42;53.29
60212;BME280;46079;48.686;15.598;2023-05-27T07:27:51;100603.38;;;22.42;53.45
60212;BME280;46079;48.686;15.598;2023-05-27T07:30:16;100597.25;;;22.42;53.45
60212;BME280;46079;48.686;15.598;2023-05-27T07:32:42;100609.47;;;22.43;53.25
60212;BME280;46079;48.686;15.598;2023-05-27T07:35:08;100601.56;;;22.43;53.36
60212;BME280;46079;48.686;15.598;2023-05-27T07:37:33;100596.28;;;22.43;53.50
60212;BME280;46079;48.686;15.598;2023-05-27T07:39:59;100600.59;;;22.44;53.60
60212;BME280;46079;48.686;15.598;2023-05-27T07:42:24;100604.19;;;22.43;53.21
60212;BME280;46079;48.686;15.598;2023-05-27T07:44:50;100594.50;;;22.44;53.50
60212;BME280;46079;48.686;15.598;2023-05-27T07:47:15;100594.50;;;22.44;53.57
60212;BME280;46079;48.686;15.598;2023-05-27T07:49:41;100597.97;;;22.44;53.15
60212;BME280;46079;48.686;15.598;2023-05-27T07:52:06;100585.75;;;22.43;53.38
60212;BME280;46079;48.686;15.598;2023-05-27T07:54:32;100591.88;;;22.44;53.62
60212;BME280;46079;48.686;15.598;2023-05-27T07:56:57;100593.66;;;22.43;53.22
60212;BME280;46079;48.686;15.598;2023-05-27T07:59:23;100583.09;;;22.43;53.40
60212;BME280;46079;48.686;15.598;2023-05-27T08:01:49;100576.19;;;22.42;53.32
60212;BME280;46079;48.686;15.598;2023-05-27T08:04:14;100572.56;;;22.43;53.11
60212;BME280;46079;48.686;15.598;2023-05-27T08:06:40;100577.00;;;22.42;53.29
60212;BME280;46079;48.686;15.598;2023-05-27T08:09:06;100584.09;;;22.42;53.57
60212;BME280;46079;48.686;15.598;2023-05-27T08:11:32;100576.19;;;22.42;53.56
60212;BME280;46079;48.686;15.598;2023-05-27T08:13:58;100574.53;;;22.41;53.37
60212;BME280;46079;48.686;15.598;2023-05-27T08:16:23;100575.34;;;22.41;53.66
60212;BME280;46079;48.686;15.598;2023-05-27T08:18:49;100574.53;;;22.41;53.35
60212;BME280;46079;48.686;15.598;2023-05-27T08:21:16;100577.16;;;22.41;53.39
60212;BME280;46079;48.686;15.598;2023-05-27T08:23:41;100574.53;;;22.41;53.18
60212;BME280;46079;48.686;15.598;2023-05-27T08:26:08;100579.78;;;22.41;53.08
60212;BME280;46079;48.686;15.598;2023-05-27T08:28:34;100572.00;;;22.39;53.23
60212;BME280;46079;48.686;15.598;2023-05-27T08:31:03;100565.91;;;22.39;53.70
60212;BME280;46079;48.686;15.598;2023-05-27T08:33:28;100575.63;;;22.38;53.57
60212;BME280;46079;48.686;15.598;2023-05-27T08:35:55;100569.53;;;22.38;53.51
60212;BME280;46079;48.686;15.598;2023-05-27T08:38:21;100562.56;;;22.37;53.63
60212;BME280;46079;48.686;15.598;2023-05-27T08:40:47;100573.94;;;22.37;53.37
60212;BME280;46079;48.686;15.598;2023-05-27T08:43:13;100567.00;;;22.36;53.49
60212;BME280;46079;48.686;15.598;2023-05-27T08:45:39;100566.19;;;22.36;53.35
60212;BME280;46079;48.686;15.598;2023-05-27T08:48:09;100570.63;;;22.35;53.37
60212;BME280;46079;48.686;15.598;2023-05-27T08:50:35;100561.84;;;22.35;53.42
60212;BME280;46079;48.686;15.598;2023-05-27T08:53:01;100554.94;;;22.34;53.74
60212;BME280;46079;48.686;15.598;2023-05-27T08:55:28;100556.59;;;22.35;53.50
60212;BME280;46079;48.686;15.598;2023-05-27T08:57:56;100556.75;;;22.33;53.38
60212;BME280;46079;48.686;15.598;2023-05-27T09:00:22;100559.50;;;22.32;53.55
60212;BME280;46079;48.686;15.598;2023-05-27T09:02:48;100559.50;;;22.32;53.22
60212;BME280;46079;48.686;15.598;2023-05-27T09:05:14;100549.94;;;22.31;53.35
60212;BME280;46079;48.686;15.598;2023-05-27T09:07:40;100556.03;;;22.31;53.58
60212;BME280;46079;48.686;15.598;2023-05-27T09:10:06;100549.94;;;22.31;53.42
60212;BME280;46079;48.686;15.598;2023-05-27T09:12:33;100549.94;;;22.31;53.65
60212;BME280;46079;48.686;15.598;2023-05-27T09:14:59;100550.06;;;22.29;53.39
60212;BME280;46079;48.686;15.598;2023-05-27T09:17:25;100549.22;;;22.29;53.28
60212;BME280;46079;48.686;15.598;2023-05-27T09:19:51;100542.31;;;22.28;53.72
60212;BME280;46079;48.686;15.598;2023-05-27T09:22:22;100555.47;;;22.28;53.54
60212;BME280;46079;48.686;15.598;2023-05-27T09:24:48;100556.44;;;22.27;53.76
60212;BME280;46079;48.686;15.598;2023-05-27T09:27:14;100548.66;;;22.25;53.87
60212;BME280;46079;48.686;15.598;2023-05-27T09:29:40;100546.88;;;22.26;53.54
60212;BME280;46079;48.686;15.598;2023-05-27T09:32:06;100534.66;;;22.25;53.44
60212;BME280;46079;48.686;15.598;2023-05-27T09:34:38;100550.47;;;22.25;53.87
60212;BME280;46079;48.686;15.598;2023-05-27T09:37:04;100552.28;;;22.24;53.67
60212;BME280;46079;48.686;15.598;2023-05-27T09:39:29;100549.66;;;22.24;53.76
60212;BME280;46079;48.686;15.598;2023-05-27T09:41:56;100536.59;;;22.23;53.62
60212;BME280;46079;48.686;15.598;2023-05-27T09:44:30;100537.56;;;22.22;53.57
60212;BME280;46079;48.686;15.598;2023-05-27T09:47:04;100536.72;;;22.21;53.81
60212;BME280;46079;48.686;15.598;2023-05-27T09:49:32;100542.84;;;22.22;53.50
60212;BME280;46079;48.686;15.598;2023-05-27T09:51:59;100536.72;;;22.21;53.74
60212;BME280;46079;48.686;15.598;2023-05-27T09:54:26;100542.97;;;22.20;53.43
60212;BME280;46079;48.686;15.598;2023-05-27T09:56:52;100543.94;;;22.19;53.78
60212;BME280;46079;48.686;15.598;2023-05-27T09:59:18;100542.13;;;22.19;53.61
60212;BME280;46079;48.686;15.598;2023-05-27T10:01:45;100535.06;;;22.20;53.72
60212;BME280;46079;48.686;15.598;2023-05-27T10:04:14;100532.66;;;22.17;53.93
60212;BME280;46079;48.686;15.598;2023-05-27T10:06:40;100536.13;;;22.17;53.67
60212;BME280;46079;48.686;15.598;2023-05-27T10:09:06;100536.13;;;22.17;53.69
60212;BME280;46079;48.686;15.598;2023-05-27T10:11:35;100530.03;;;22.17;53.49
60212;BME280;46079;48.686;15.598;2023-05-27T10:14:02;100526.56;;;22.16;53.90
60212;BME280;46079;48.686;15.598;2023-05-27T10:16:28;100526.56;;;22.16;53.92
60212;BME280;46079;48.686;15.598;2023-05-27T10:18:55;100533.66;;;22.16;53.68
60212;BME280;46079;48.686;15.598;2023-05-27T10:21:22;100533.66;;;22.16;54.02
60212;BME280;46079;48.686;15.598;2023-05-27T10:24:01;100528.38;;;22.16;53.64
60212;BME280;46079;48.686;15.598;2023-05-27T10:26:43;100519.63;;;22.15;53.69
60212;BME280;46079;48.686;15.598;2023-05-27T10:29:14;100516.16;;;22.15;54.23
60212;BME280;46079;48.686;15.598;2023-05-27T10:31:51;100511.88;;;22.14;53.79
60212;BME280;46079;48.686;15.598;2023-05-27T10:34:17;100510.06;;;22.14;53.63
60212;BME280;46079;48.686;15.598;2023-05-27T10:36:44;100506.72;;;22.12;53.86
60212;BME280;46079;48.686;15.598;2023-05-27T10:39:17;100503.13;;;22.13;54.05
60212;BME280;46079;48.686;15.598;2023-05-27T10:41:53;100519.88;;;22.12;53.99
60212;BME280;46079;48.686;15.598;2023-05-27T10:44:26;100511.97;;;22.12;53.80
60212;BME280;46079;48.686;15.598;2023-05-27T10:47:02;100519.88;;;22.12;53.86
60212;BME280;46079;48.686;15.598;2023-05-27T10:49:28;100505.06;;;22.11;53.90
60212;BME280;46079;48.686;15.598;2023-05-27T10:52:05;100511.16;;;22.12;54.07
60212;BME280;46079;48.686;15.598;2023-05-27T10:54:34;100501.44;;;22.12;53.92
60212;BME280;46079;48.686;15.598;2023-05-27T10:57:02;100510.31;;;22.11;54.04
60212;BME280;46079;48.686;15.598;2023-05-27T10:59:33;100504.22;;;22.11;53.69
60212;BME280;46079;48.686;15.598;2023-05-27T11:02:03;100505.06;;;22.11;53.93
60212;BME280;46079;48.686;15.598;2023-05-27T11:04:37;100503.25;;;22.12;54.13
60212;BME280;46079;48.686;15.598;2023-05-27T11:07:03;100502.44;;;22.11;53.47
60212;BME280;46079;48.686;15.598;2023-05-27T11:09:29;100503.38;;;22.10;54.02
60212;BME280;46079;48.686;15.598;2023-05-27T11:11:56;100498.09;;;22.10;54.06
60212;BME280;46079;48.686;15.598;2023-05-27T11:14:23;100495.47;;;22.10;54.13
60212;BME280;46079;48.686;15.598;2023-05-27T11:16:48;100492.84;;;22.10;54.14
60212;BME280;46079;48.686;15.598;2023-05-27T11:19:18;100496.44;;;22.09;53.64
60212;BME280;46079;48.686;15.598;2023-05-27T11:21:47;100496.44;;;22.09;53.94
60212;BME280;46079;48.686;15.598;2023-05-27T11:24:17;100493.00;;;22.09;53.68
60212;BME280;46079;48.686;15.598;2023-05-27T11:26:46;100483.28;;;22.09;53.85
60212;BME280;46079;48.686;15.598;2023-05-27T11:29:15;100489.53;;;22.08;54.05
60212;BME280;46079;48.686;15.598;2023-05-27T11:31:41;100479.81;;;22.09;53.92
60212;BME280;46079;48.686;15.598;2023-05-27T11:34:14;100479.81;;;22.09;53.86
60212;BME280;46079;48.686;15.598;2023-05-27T11:36:40;100472.88;;;22.08;54.10
60212;BME280;46079;48.686;15.598;2023-05-27T11:39:05;100479.00;;;22.08;53.81
60212;BME280;46079;48.686;15.598;2023-05-27T11:41:34;100477.31;;;22.07;53.80
60212;BME280;46079;48.686;15.598;2023-05-27T11:46:44;100472.03;;;22.07;54.11
60212;BME280;46079;48.686;15.598;2023-05-27T11:49:11;100472.03;;;22.07;54.22
60212;BME280;46079;48.686;15.598;2023-05-27T11:51:47;100476.47;;;22.07;54.11
60212;BME280;46079;48.686;15.598;2023-05-27T11:54:28;100466.75;;;22.07;53.88
60212;BME280;46079;48.686;15.598;2023-05-27T11:56:55;100452.63;;;22.08;53.94
60212;BME280;46079;48.686;15.598;2023-05-27T11:59:24;100454.56;;;22.06;53.88
60212;BME280;46079;48.686;15.598;2023-05-27T12:01:51;100465.09;;;22.06;53.69
60212;BME280;46079;48.686;15.598;2023-05-27T12:04:17;100465.09;;;22.06;53.74
60212;BME280;46079;48.686;15.598;2023-05-27T12:06:44;100457.19;;;22.06;54.13
60212;BME280;46079;48.686;15.598;2023-05-27T12:09:10;100449.31;;;22.06;53.98
60212;BME280;46079;48.686;15.598;2023-05-27T12:11:37;100449.31;;;22.06;54.08
60212;BME280;46079;48.686;15.598;2023-05-27T12:14:03;100447.66;;;22.05;54.08
60212;BME280;46079;48.686;15.598;2023-05-27T12:16:29;100451.94;;;22.06;53.96
60212;BME280;46079;48.686;15.598;2023-05-27T12:18:54;100440.56;;;22.06;54.15
60212;BME280;46079;48.686;15.598;2023-05-27T12:21:21;100444.03;;;22.06;54.45
60212;BME280;46079;48.686;15.598;2023-05-27T12:23:47;100450.28;;;22.05;54.09
60212;BME280;46079;48.686;15.598;2023-05-27T12:26:13;100441.41;;;22.06;53.76
60212;BME280;46079;48.686;15.598;2023-05-27T12:28:40;100441.53;;;22.05;54.22
60212;BME280;46079;48.686;15.598;2023-05-27T12:31:06;100442.38;;;22.05;54.23
60212;BME280;46079;48.686;15.598;2023-05-27T12:33:31;100438.75;;;22.06;54.02
60212;BME280;46079;48.686;15.598;2023-05-27T12:35:58;100434.47;;;22.05;54.26
60212;BME280;46079;48.686;15.598;2023-05-27T12:38:23;100435.31;;;22.06;54.23
60212;BME280;46079;48.686;15.598;2023-05-27T12:40:50;100424.75;;;22.06;54.48
60212;BME280;46079;48.686;15.598;2023-05-27T12:43:17;100427.41;;;22.06;54.03
60212;BME280;46079;48.686;15.598;2023-05-27T12:45:43;100428.34;;;22.05;54.24
60212;BME280;46079;48.686;15.598;2023-05-27T12:48:11;100427.53;;;22.04;53.90